Time;durP1;ratioP1;P1;durP2;ratioP2;P2;SDS_P1;SDS_P2;PMS_P1;PMS_P2;Temp;Humidity;BMP_temperature;BMP_pressure;BME280_temperature;BME280_humidity;BME280_pressure;Samples;Min_cycle;Max_cycle;Signal;HPM_P1;HPM_P2
2023/06/07 00:02:07;;;;;;;6.33;3.47;;;;;;;;;;4983489;28;20022;-74
2023/06/07 00:04:33;;;;;;;5.95;3.67;;;;;;;;;;4974906;28;20613;-74
2023/06/07 00:07:01;;;;;;;4.60;3.22;;;;;;;;;;4989007;28;20014;-74
2023/06/07 00:09:29;;;;;;;6.13;2.97;;;;;;;;;;4980223;28;20026;-74
2023/06/07 00:11:55;;;;;;;5.15;3.28;;;;;;;;;;4981249;28;20034;-74
2023/06/07 00:14:20;;;;;;;5.57;2.97;;;;;;;;;;4991029;28;20018;-74
2023/06/07 00:16:45;;;;;;;5.57;3.50;;;;;;;;;;4984549;28;20015;-74
2023/06/07 00:19:11;;;;;;;6.80;3.90;;;;;;;;;;4977384;28;20026;-74
2023/06/07 00:21:38;;;;;;;6.05;3.15;;;;;;;;;;4979042;28;20025;-74
2023/06/07 00:24:03;;;;;;;5.45;3.47;;;;;;;;;;4982673;28;20042;-74
2023/06/07 00:26:28;;;;;;;4.93;3.45;;;;;;;;;;4973276;28;20026;-74
2023/06/07 00:28:53;;;;;;;8.13;3.92;;;;;;;;;;4971493;28;20042;-74
2023/06/07 00:31:18;;;;;;;6.80;3.63;;;;;;;;;;4971334;28;20034;-74
2023/06/07 00:33:44;;;;;;;7.05;3.47;;;;;;;;;;4983277;28;20023;-74
2023/06/07 00:36:09;;;;;;;6.17;2.93;;;;;;;;;;4981359;28;20030;-74
2023/06/07 00:38:34;;;;;;;5.30;3.47;;;;;;;;;;4979469;28;20677;-74
2023/06/07 00:40:59;;;;;;;6.43;3.75;;;;;;;;;;4978850;28;20018;-74
2023/06/07 00:43:25;;;;;;;7.05;3.33;;;;;;;;;;4981859;28;20072;-74
2023/06/07 00:45:50;;;;;;;7.85;4.20;;;;;;;;;;4981100;28;20477;-74
2023/06/07 00:48:15;;;;;;;6.60;3.50;;;;;;;;;;4981013;28;20033;-74
2023/06/07 00:50:40;;;;;;;6.75;3.35;;;;;;;;;;4992411;28;20057;-74
2023/06/07 00:53:07;;;;;;;5.82;3.60;;;;;;;;;;4995632;28;20026;-74
2023/06/07 00:55:32;;;;;;;8.05;3.30;;;;;;;;;;4996982;28;20029;-74
2023/06/07 00:57:58;;;;;;;9.03;4.07;;;;;;;;;;4993257;28;20027;-74
2023/06/07 01:00:23;;;;;;;5.45;3.42;;;;;;;;;;4987916;28;20273;-74
2023/06/07 01:02:49;;;;;;;5.60;4.05;;;;;;;;;;4993774;28;20018;-74
2023/06/07 01:05:14;;;;;;;7.38;3.90;;;;;;;;;;4985263;28;20023;-74
2023/06/07 01:07:43;;;;;;;8.73;3.63;;;;;;;;;;4992028;28;20022;-74
2023/06/07 01:10:08;;;;;;;8.23;3.85;;;;;;;;;;4992033;28;20089;-74
2023/06/07 01:12:34;;;;;;;6.53;4.03;;;;;;;;;;4986438;28;20050;-74
2023/06/07 01:15:00;;;;;;;10.02;5.10;;;;;;;;;;4982587;28;20023;-74
2023/06/07 01:17:26;;;;;;;6.60;3.40;;;;;;;;;;4980269;28;20122;-74
2023/06/07 01:19:53;;;;;;;6.60;3.42;;;;;;;;;;4985342;28;20026;-74
2023/06/07 01:22:19;;;;;;;7.82;4.43;;;;;;;;;;4996369;28;20390;-74
2023/06/07 01:24:47;;;;;;;10.35;4.00;;;;;;;;;;4989942;28;20034;-74
2023/06/07 01:27:14;;;;;;;8.27;4.35;;;;;;;;;;4968111;28;20059;-74
2023/06/07 01:29:39;;;;;;;13.23;4.47;;;;;;;;;;4984493;28;20127;-74
2023/06/07 01:32:06;;;;;;;9.82;4.65;;;;;;;;;;4991740;28;20489;-74
2023/06/07 01:34:32;;;;;;;8.02;3.83;;;;;;;;;;4986731;28;20018;-74
2023/06/07 01:36:58;;;;;;;8.10;3.85;;;;;;;;;;4987610;28;20088;-74
2023/06/07 01:39:24;;;;;;;7.50;3.88;;;;;;;;;;4988789;28;20023;-74
2023/06/07 01:41:51;;;;;;;7.22;4.25;;;;;;;;;;4980136;28;20015;-74
2023/06/07 01:44:16;;;;;;;14.30;4.90;;;;;;;;;;4985239;28;20024;-74
2023/06/07 01:46:42;;;;;;;7.93;4.72;;;;;;;;;;4987244;28;20018;-74
2023/06/07 01:49:07;;;;;;;6.60;3.97;;;;;;;;;;4983293;28;20049;-74
2023/06/07 01:51:32;;;;;;;8.07;4.30;;;;;;;;;;4988235;28;20535;-74
2023/06/07 01:53:58;;;;;;;8.90;4.20;;;;;;;;;;4989448;28;20034;-74
2023/06/07 01:56:31;;;;;;;14.38;4.35;;;;;;;;;;4981241;28;20332;-74
2023/06/07 01:59:01;;;;;;;10.10;4.40;;;;;;;;;;4975584;28;20010;-74
2023/06/07 02:01:52;;;;;;;6.63;4.00;;;;;;;;;;4989414;28;20061;-74
2023/06/07 02:04:19;;;;;;;9.10;4.63;;;;;;;;;;4959984;28;20034;-74
2023/06/07 02:06:44;;;;;;;8.52;4.28;;;;;;;;;;4973930;28;20023;-74
2023/06/07 02:09:11;;;;;;;12.07;4.55;;;;;;;;;;4984307;28;20029;-74
2023/06/07 02:11:37;;;;;;;15.70;7.00;;;;;;;;;;4960348;28;20049;-74
2023/06/07 02:14:02;;;;;;;11.25;4.55;;;;;;;;;;4977017;28;20065;-74
2023/06/07 02:16:35;;;;;;;10.35;4.35;;;;;;;;;;4988407;28;20067;-74
2023/06/07 02:19:04;;;;;;;8.68;4.68;;;;;;;;;;4976133;28;20050;-74
2023/06/07 02:21:30;;;;;;;8.82;4.75;;;;;;;;;;4979942;28;20065;-74
2023/06/07 02:23:55;;;;;;;9.10;4.70;;;;;;;;;;4992847;28;20022;-74
2023/06/07 02:26:20;;;;;;;6.97;4.20;;;;;;;;;;4988760;28;20073;-74
2023/06/07 02:28:45;;;;;;;6.97;4.30;;;;;;;;;;4994428;28;20597;-74
2023/06/07 02:31:10;;;;;;;9.13;4.32;;;;;;;;;;4992880;28;20100;-74
2023/06/07 02:33:36;;;;;;;13.43;4.90;;;;;;;;;;4969780;28;20077;-75
2023/06/07 02:36:02;;;;;;;9.57;4.50;;;;;;;;;;4990228;28;20285;-74
2023/06/07 02:38:27;;;;;;;8.68;4.50;;;;;;;;;;4988320;28;20254;-74
2023/06/07 02:40:54;;;;;;;8.77;5.00;;;;;;;;;;4989591;28;20114;-74
2023/06/07 02:43:19;;;;;;;9.27;4.63;;;;;;;;;;4991443;28;20026;-74
2023/06/07 02:45:45;;;;;;;6.70;4.53;;;;;;;;;;4993907;28;20022;-74
2023/06/07 02:48:12;;;;;;;8.97;4.33;;;;;;;;;;4989518;28;20290;-74
2023/06/07 02:50:37;;;;;;;8.05;4.63;;;;;;;;;;4989652;28;20265;-74
2023/06/07 02:53:05;;;;;;;7.40;4.20;;;;;;;;;;4990625;28;20026;-74
2023/06/07 02:55:31;;;;;;;6.45;3.85;;;;;;;;;;4994662;28;20034;-74
2023/06/07 02:57:56;;;;;;;9.33;4.43;;;;;;;;;;4992936;28;20026;-74
2023/06/07 03:00:21;;;;;;;10.20;4.47;;;;;;;;;;4988171;28;20177;-74
2023/06/07 03:02:47;;;;;;;13.13;4.57;;;;;;;;;;4987802;28;20026;-74
2023/06/07 03:05:12;;;;;;;9.02;4.47;;;;;;;;;;4989256;28;20019;-75
2023/06/07 03:07:40;;;;;;;7.60;4.18;;;;;;;;;;4995912;28;20104;-74
2023/06/07 03:10:06;;;;;;;10.43;4.90;;;;;;;;;;4992803;28;20149;-74
2023/06/07 03:12:31;;;;;;;8.65;4.32;;;;;;;;;;4992944;28;20097;-74
2023/06/07 03:14:56;;;;;;;9.88;4.82;;;;;;;;;;4984643;28;20520;-74
2023/06/07 03:17:22;;;;;;;9.77;4.87;;;;;;;;;;4992786;28;20686;-74
2023/06/07 03:19:47;;;;;;;10.25;5.53;;;;;;;;;;4989240;28;20361;-74
2023/06/07 03:22:12;;;;;;;13.82;6.18;;;;;;;;;;4977044;28;20046;-74
2023/06/07 03:24:38;;;;;;;13.70;5.72;;;;;;;;;;4992410;28;20042;-74
2023/06/07 03:27:03;;;;;;;12.68;5.97;;;;;;;;;;4990185;28;20018;-74
2023/06/07 03:29:30;;;;;;;10.20;5.55;;;;;;;;;;4987729;28;20037;-74
2023/06/07 03:31:55;;;;;;;11.90;6.45;;;;;;;;;;4993308;28;20430;-74
2023/06/07 03:34:21;;;;;;;7.60;5.77;;;;;;;;;;4990112;28;20117;-74
2023/06/07 03:36:47;;;;;;;12.73;5.38;;;;;;;;;;4995373;28;20375;-74
2023/06/07 03:39:12;;;;;;;14.32;5.55;;;;;;;;;;4989594;28;20022;-74
2023/06/07 03:41:37;;;;;;;10.67;5.63;;;;;;;;;;4991828;28;20477;-74
2023/06/07 03:44:03;;;;;;;17.37;7.17;;;;;;;;;;4991731;28;20289;-74
2023/06/07 03:46:28;;;;;;;16.67;6.53;;;;;;;;;;4994465;28;20250;-74
2023/06/07 03:48:53;;;;;;;11.97;6.37;;;;;;;;;;4970594;28;20038;-74
2023/06/07 03:51:18;;;;;;;12.17;6.80;;;;;;;;;;4985900;28;20851;-74
2023/06/07 03:53:43;;;;;;;12.53;6.80;;;;;;;;;;4986773;28;20341;-74
2023/06/07 03:56:09;;;;;;;21.37;7.40;;;;;;;;;;4977497;28;20301;-74
2023/06/07 03:58:35;;;;;;;18.67;7.05;;;;;;;;;;4986224;28;20304;-74
2023/06/07 04:01:01;;;;;;;15.50;6.28;;;;;;;;;;4988454;28;20108;-74
2023/06/07 04:03:27;;;;;;;16.00;5.97;;;;;;;;;;4991315;28;20101;-74
2023/06/07 04:05:56;;;;;;;11.38;6.13;;;;;;;;;;4989421;28;20728;-74
2023/06/07 04:08:21;;;;;;;15.07;6.60;;;;;;;;;;4971852;28;20035;-74
2023/06/07 04:10:46;;;;;;;17.45;6.60;;;;;;;;;;4984200;28;20443;-74
2023/06/07 04:13:11;;;;;;;17.20;6.87;;;;;;;;;;4972271;28;20041;-74
2023/06/07 04:15:37;;;;;;;17.50;6.17;;;;;;;;;;4971135;28;20273;-74
2023/06/07 04:18:02;;;;;;;16.42;5.78;;;;;;;;;;4980016;28;20669;-74
2023/06/07 04:20:27;;;;;;;18.00;6.70;;;;;;;;;;4978911;28;20076;-74
2023/06/07 04:22:53;;;;;;;11.55;5.47;;;;;;;;;;4979031;28;20344;-74
2023/06/07 04:25:24;;;;;;;16.42;5.90;;;;;;;;;;4982776;28;20014;-74
2023/06/07 04:27:49;;;;;;;13.40;6.22;;;;;;;;;;4984673;28;20515;-74
2023/06/07 04:30:20;;;;;;;16.25;6.63;;;;;;;;;;4976840;28;20019;-74
2023/06/07 04:32:46;;;;;;;13.68;6.65;;;;;;;;;;4991329;28;20014;-74
2023/06/07 04:35:14;;;;;;;13.95;6.38;;;;;;;;;;4982971;28;20382;-74
2023/06/07 04:37:39;;;;;;;16.50;6.10;;;;;;;;;;4964403;28;20030;-74
2023/06/07 04:40:05;;;;;;;13.27;6.03;;;;;;;;;;4981647;28;20026;-73
2023/06/07 04:42:31;;;;;;;17.23;5.88;;;;;;;;;;4990065;28;20019;-73
2023/06/07 04:45:00;;;;;;;12.90;6.75;;;;;;;;;;4984451;28;20081;-73
2023/06/07 04:47:27;;;;;;;18.17;7.60;;;;;;;;;;4987309;28;20022;-73
2023/06/07 04:49:53;;;;;;;15.38;6.75;;;;;;;;;;4990518;28;20026;-74
2023/06/07 04:52:19;;;;;;;19.20;6.88;;;;;;;;;;4989308;28;20410;-74
2023/06/07 04:54:46;;;;;;;15.82;6.93;;;;;;;;;;4984659;28;20085;-74
2023/06/07 04:57:12;;;;;;;23.27;6.93;;;;;;;;;;4979771;28;20039;-74
2023/06/07 04:59:42;;;;;;;20.70;7.15;;;;;;;;;;4984097;28;20437;-74
2023/06/07 05:02:07;;;;;;;12.60;6.82;;;;;;;;;;4985600;28;20022;-74
2023/06/07 05:04:33;;;;;;;10.90;6.50;;;;;;;;;;4982200;28;20019;-74
2023/06/07 05:06:58;;;;;;;13.25;7.80;;;;;;;;;;4989602;28;20050;-74
2023/06/07 05:09:24;;;;;;;14.47;7.13;;;;;;;;;;4980710;28;21020;-74
2023/06/07 05:11:49;;;;;;;14.88;7.22;;;;;;;;;;4992409;28;20681;-74
2023/06/07 05:14:14;;;;;;;22.48;7.18;;;;;;;;;;4984198;28;20069;-74
2023/06/07 05:16:43;;;;;;;15.75;7.28;;;;;;;;;;4984088;28;20031;-74
2023/06/07 05:19:10;;;;;;;20.65;7.57;;;;;;;;;;4988706;28;20032;-74
2023/06/07 05:21:36;;;;;;;17.48;8.07;;;;;;;;;;4979123;28;20011;-74
2023/06/07 05:24:01;;;;;;;19.15;7.53;;;;;;;;;;4985877;28;20038;-74
2023/06/07 05:26:26;;;;;;;18.87;7.33;;;;;;;;;;4982451;28;20030;-74
2023/06/07 05:28:51;;;;;;;13.83;7.00;;;;;;;;;;4986839;28;20289;-74
2023/06/07 05:31:18;;;;;;;17.97;6.60;;;;;;;;;;4986542;28;20274;-73
2023/06/07 05:33:43;;;;;;;14.13;6.78;;;;;;;;;;4991302;28;20053;-73
2023/06/07 05:36:11;;;;;;;14.83;7.00;;;;;;;;;;4992474;28;20034;-73
2023/06/07 05:38:36;;;;;;;18.25;7.75;;;;;;;;;;4985921;28;20279;-74
2023/06/07 05:41:01;;;;;;;18.77;7.72;;;;;;;;;;4981409;28;20022;-74
2023/06/07 05:43:27;;;;;;;22.07;7.97;;;;;;;;;;4985023;28;20032;-74
2023/06/07 05:45:52;;;;;;;16.57;7.23;;;;;;;;;;4986406;28;20273;-74
2023/06/07 05:48:17;;;;;;;16.30;7.80;;;;;;;;;;4981763;28;20077;-74
2023/06/07 05:50:42;;;;;;;15.25;6.88;;;;;;;;;;4989371;28;20273;-74
2023/06/07 05:53:07;;;;;;;16.08;7.53;;;;;;;;;;4986106;28;20030;-74
2023/06/07 05:55:33;;;;;;;14.47;7.40;;;;;;;;;;4991065;28;20502;-74
2023/06/07 05:58:00;;;;;;;18.53;6.57;;;;;;;;;;4976408;28;20258;-74
2023/06/07 06:00:25;;;;;;;21.40;7.50;;;;;;;;;;4991870;28;20026;-74
2023/06/07 06:02:52;;;;;;;23.90;7.80;;;;;;;;;;4978149;28;20500;-74
2023/06/07 06:05:18;;;;;;;11.10;6.15;;;;;;;;;;4986122;28;20023;-74
2023/06/07 06:07:43;;;;;;;14.02;7.38;;;;;;;;;;4989243;28;20018;-74
2023/06/07 06:10:08;;;;;;;20.50;8.10;;;;;;;;;;4976445;28;20681;-74
2023/06/07 06:12:33;;;;;;;22.75;7.85;;;;;;;;;;4989568;28;20007;-74
2023/06/07 06:14:59;;;;;;;25.50;7.40;;;;;;;;;;4989664;28;20484;-74
2023/06/07 06:17:25;;;;;;;15.68;7.20;;;;;;;;;;4975348;28;20401;-74
2023/06/07 06:19:50;;;;;;;17.95;7.82;;;;;;;;;;4979204;28;20017;-73
2023/06/07 06:22:15;;;;;;;23.33;8.20;;;;;;;;;;4980898;28;20045;-73
2023/06/07 06:24:41;;;;;;;20.23;7.43;;;;;;;;;;4985712;28;20021;-74
2023/06/07 06:27:06;;;;;;;19.80;8.57;;;;;;;;;;4974550;28;20516;-74
2023/06/07 06:29:31;;;;;;;14.32;7.15;;;;;;;;;;4985432;28;20029;-74
2023/06/07 06:31:57;;;;;;;17.70;8.25;;;;;;;;;;4966539;28;20027;-74
2023/06/07 06:34:23;;;;;;;18.53;7.40;;;;;;;;;;4984454;28;20081;-73
2023/06/07 06:36:48;;;;;;;14.82;7.75;;;;;;;;;;4987542;28;20023;-74
2023/06/07 06:39:14;;;;;;;19.10;8.05;;;;;;;;;;4988669;28;20019;-73
2023/06/07 06:41:39;;;;;;;24.38;8.23;;;;;;;;;;4984248;28;20077;-74
2023/06/07 06:44:04;;;;;;;18.95;7.07;;;;;;;;;;4981937;28;20038;-73
2023/06/07 06:46:29;;;;;;;18.73;7.80;;;;;;;;;;4980453;28;20046;-74
2023/06/07 06:48:54;;;;;;;19.27;6.97;;;;;;;;;;4982478;28;20331;-73
2023/06/07 06:51:20;;;;;;;17.73;7.40;;;;;;;;;;4984287;28;20282;-74
2023/06/07 06:53:45;;;;;;;24.50;7.22;;;;;;;;;;4985318;28;20015;-74
2023/06/07 06:56:11;;;;;;;17.80;7.97;;;;;;;;;;4980730;28;20062;-74
2023/06/07 06:58:36;;;;;;;22.87;7.73;;;;;;;;;;4981722;28;20038;-73
2023/06/07 07:01:02;;;;;;;18.98;7.10;;;;;;;;;;4980738;28;20787;-74
2023/06/07 07:03:27;;;;;;;19.05;9.35;;;;;;;;;;4978802;28;20018;-74
2023/06/07 07:05:52;;;;;;;19.58;8.85;;;;;;;;;;4980144;28;20384;-74
2023/06/07 07:08:18;;;;;;;24.87;7.67;;;;;;;;;;4980592;28;20511;-74
2023/06/07 07:10:43;;;;;;;16.58;8.00;;;;;;;;;;4978694;28;20046;-74
2023/06/07 07:13:08;;;;;;;21.37;7.20;;;;;;;;;;4983732;28;20492;-74
2023/06/07 07:15:34;;;;;;;17.98;7.70;;;;;;;;;;4982183;28;20298;-74
2023/06/07 07:18:00;;;;;;;22.13;7.43;;;;;;;;;;4979778;28;20019;-74
2023/06/07 07:20:25;;;;;;;17.13;7.82;;;;;;;;;;4984975;28;20359;-74
2023/06/07 07:22:51;;;;;;;19.80;7.65;;;;;;;;;;4982639;28;20173;-74
2023/06/07 07:25:16;;;;;;;15.13;7.85;;;;;;;;;;4978743;28;20026;-74
2023/06/07 07:27:42;;;;;;;13.75;7.20;;;;;;;;;;4986049;28;20019;-74
2023/06/07 07:30:09;;;;;;;14.15;7.35;;;;;;;;;;4985872;28;20390;-74
2023/06/07 07:32:34;;;;;;;16.48;7.43;;;;;;;;;;4974331;28;20019;-74
2023/06/07 07:35:00;;;;;;;14.18;7.55;;;;;;;;;;4979394;28;20502;-74
2023/06/07 07:37:28;;;;;;;15.40;7.27;;;;;;;;;;4980478;28;20014;-74
2023/06/07 07:39:53;;;;;;;18.20;7.53;;;;;;;;;;4981936;28;20365;-74
2023/06/07 07:42:18;;;;;;;20.60;8.45;;;;;;;;;;4984911;28;20051;-74
2023/06/07 07:44:44;;;;;;;10.90;7.00;;;;;;;;;;4957385;28;20023;-74
2023/06/07 07:47:11;;;;;;;17.25;7.45;;;;;;;;;;4979605;28;20947;-74
2023/06/07 07:49:37;;;;;;;13.68;7.15;;;;;;;;;;4983167;28;20648;-74
2023/06/07 07:52:02;;;;;;;15.27;6.67;;;;;;;;;;4972540;28;20026;-74
2023/06/07 07:54:29;;;;;;;12.85;7.22;;;;;;;;;;4978186;28;20339;-74
2023/06/07 07:56:54;;;;;;;13.13;6.72;;;;;;;;;;4955984;28;20448;-74
2023/06/07 07:59:19;;;;;;;12.60;6.67;;;;;;;;;;4972674;28;20050;-74
2023/06/07 08:01:45;;;;;;;15.25;7.00;;;;;;;;;;4972607;28;20021;-74
2023/06/07 08:04:10;;;;;;;15.35;7.18;;;;;;;;;;4990939;28;20018;-74
2023/06/07 08:06:35;;;;;;;11.85;6.78;;;;;;;;;;4986137;28;20025;-74
2023/06/07 08:09:02;;;;;;;16.97;7.70;;;;;;;;;;4971469;28;20050;-74
2023/06/07 08:11:27;;;;;;;11.88;7.13;;;;;;;;;;4973278;28;20026;-74
2023/06/07 08:13:53;;;;;;;10.57;6.47;;;;;;;;;;4975590;28;20072;-73
2023/06/07 08:16:18;;;;;;;15.97;7.43;;;;;;;;;;4983712;28;20343;-73
2023/06/07 08:18:49;;;;;;;12.45;6.63;;;;;;;;;;4984784;28;20481;-73
2023/06/07 08:21:14;;;;;;;16.10;7.07;;;;;;;;;;4976417;28;20018;-74
2023/06/07 08:23:41;;;;;;;13.70;6.97;;;;;;;;;;4991177;28;20018;-73
2023/06/07 08:26:06;;;;;;;16.95;7.25;;;;;;;;;;4987508;28;20045;-73
2023/06/07 08:28:31;;;;;;;13.13;6.77;;;;;;;;;;4971672;28;20473;-73
2023/06/07 08:30:56;;;;;;;15.63;7.10;;;;;;;;;;4980604;28;20310;-74
2023/06/07 08:33:21;;;;;;;15.67;7.10;;;;;;;;;;4978505;28;20026;-73
2023/06/07 08:35:46;;;;;;;18.53;6.63;;;;;;;;;;4980747;28;20281;-73
2023/06/07 08:38:12;;;;;;;13.30;6.37;;;;;;;;;;4976175;28;20100;-73
2023/06/07 08:40:37;;;;;;;19.63;6.50;;;;;;;;;;4981921;28;20302;-74
2023/06/07 08:43:02;;;;;;;12.25;6.80;;;;;;;;;;4975489;28;20019;-73
2023/06/07 08:45:28;;;;;;;19.63;7.27;;;;;;;;;;4975762;28;20029;-74
2023/06/07 08:47:53;;;;;;;12.70;6.60;;;;;;;;;;4980397;28;20299;-72
2023/06/07 08:50:19;;;;;;;12.43;6.45;;;;;;;;;;4976077;28;20124;-73
2023/06/07 08:52:48;;;;;;;12.25;7.25;;;;;;;;;;4980505;28;20019;-73
2023/06/07 08:55:13;;;;;;;15.90;6.25;;;;;;;;;;4983581;28;20044;-73
2023/06/07 08:57:38;;;;;;;13.77;6.72;;;;;;;;;;4981778;28;20534;-73
2023/06/07 09:00:06;;;;;;;14.05;6.38;;;;;;;;;;4988091;28;20030;-73
2023/06/07 09:02:32;;;;;;;16.80;6.38;;;;;;;;;;4969068;28;20034;-73
2023/06/07 09:04:57;;;;;;;14.35;6.03;;;;;;;;;;4985920;28;20061;-73
2023/06/07 09:07:22;;;;;;;10.33;5.73;;;;;;;;;;4985220;28;20524;-73
2023/06/07 09:09:47;;;;;;;14.00;6.43;;;;;;;;;;4969416;28;20019;-73
2023/06/07 09:12:13;;;;;;;13.93;6.00;;;;;;;;;;4984706;28;20283;-73
2023/06/07 09:14:38;;;;;;;9.70;5.55;;;;;;;;;;4984512;28;20340;-73
2023/06/07 09:17:03;;;;;;;13.30;5.97;;;;;;;;;;4985632;28;20027;-73
2023/06/07 09:19:29;;;;;;;15.10;6.35;;;;;;;;;;4982581;28;20089;-73
2023/06/07 09:21:55;;;;;;;19.77;6.72;;;;;;;;;;4986049;28;20019;-73
2023/06/07 09:24:25;;;;;;;16.83;7.60;;;;;;;;;;4988357;28;20054;-73
2023/06/07 09:26:51;;;;;;;22.63;7.75;;;;;;;;;;4983860;28;20089;-73
2023/06/07 09:29:16;;;;;;;13.40;8.80;;;;;;;;;;4967447;28;20034;-73
2023/06/07 09:31:41;;;;;;;19.67;9.53;;;;;;;;;;4984355;28;20046;-72
2023/06/07 09:34:22;;;;;;;18.50;9.93;;;;;;;;;;4982384;28;20045;-73
2023/06/07 09:36:49;;;;;;;20.58;8.90;;;;;;;;;;4982632;28;20477;-73
2023/06/07 09:39:24;;;;;;;18.25;9.05;;;;;;;;;;4985690;28;20392;-73
2023/06/07 09:41:50;;;;;;;18.38;9.02;;;;;;;;;;4981963;28;20022;-72
2023/06/07 09:44:28;;;;;;;18.58;9.02;;;;;;;;;;4990935;28;20034;-73
2023/06/07 09:46:54;;;;;;;17.63;8.30;;;;;;;;;;4993105;28;20062;-73
2023/06/07 09:49:26;;;;;;;17.73;8.57;;;;;;;;;;4988936;28;20030;-73
2023/06/07 09:51:52;;;;;;;14.65;7.65;;;;;;;;;;4993329;28;20029;-73
2023/06/07 09:54:19;;;;;;;15.13;7.90;;;;;;;;;;4992805;28;20481;-72
2023/06/07 09:56:44;;;;;;;13.27;7.88;;;;;;;;;;4983280;28;20030;-73
2023/06/07 09:59:14;;;;;;;13.88;7.40;;;;;;;;;;4982334;28;20038;-72
2023/06/07 10:01:42;;;;;;;25.98;9.85;;;;;;;;;;4962543;28;20022;-74
2023/06/07 10:04:08;;;;;;;15.50;7.45;;;;;;;;;;4983442;28;20401;-73
2023/06/07 10:06:35;;;;;;;10.85;6.60;;;;;;;;;;4984371;28;20022;-73
2023/06/07 10:09:03;;;;;;;15.55;6.75;;;;;;;;;;4985755;28;20018;-73
2023/06/07 10:11:29;;;;;;;16.00;6.90;;;;;;;;;;4980439;28;20015;-73
2023/06/07 10:13:55;;;;;;;14.35;6.72;;;;;;;;;;4980710;28;20049;-73
2023/06/07 10:16:21;;;;;;;13.27;7.60;;;;;;;;;;4978575;28;20466;-73
2023/06/07 10:18:48;;;;;;;14.10;7.05;;;;;;;;;;4987056;28;20106;-73
2023/06/07 10:21:18;;;;;;;13.35;7.05;;;;;;;;;;4989043;28;20033;-72
2023/06/07 10:23:46;;;;;;;11.80;6.78;;;;;;;;;;4983346;28;20421;-73
2023/06/07 10:26:18;;;;;;;15.50;6.97;;;;;;;;;;4988501;28;20109;-73
2023/06/07 10:28:46;;;;;;;12.82;7.55;;;;;;;;;;4980412;28;20078;-73
2023/06/07 10:31:12;;;;;;;14.60;8.18;;;;;;;;;;4981595;28;20669;-73
2023/06/07 10:33:37;;;;;;;15.85;7.75;;;;;;;;;;4984034;28;20023;-73
2023/06/07 10:36:03;;;;;;;25.45;8.75;;;;;;;;;;4987456;28;20370;-73
2023/06/07 10:38:29;;;;;;;13.63;8.40;;;;;;;;;;4977315;28;20073;-73
2023/06/07 10:40:55;;;;;;;17.60;8.75;;;;;;;;;;4979338;28;20019;-73
2023/06/07 10:43:21;;;;;;;14.77;8.13;;;;;;;;;;4982259;28;20105;-73
2023/06/07 10:45:46;;;;;;;17.30;8.38;;;;;;;;;;4985791;28;20102;-73
2023/06/07 10:48:31;;;;;;;19.90;8.03;;;;;;;;;;4983090;28;20026;-74
2023/06/07 10:50:56;;;;;;;17.23;8.48;;;;;;;;;;4979810;28;20639;-73
2023/06/07 10:53:22;;;;;;;19.27;9.10;;;;;;;;;;4963040;28;20030;-73
2023/06/07 10:55:47;;;;;;;21.70;8.27;;;;;;;;;;4982464;28;20022;-72
2023/06/07 10:58:24;;;;;;;16.87;8.40;;;;;;;;;;4990124;28;20045;-73
2023/06/07 11:00:50;;;;;;;15.02;8.02;;;;;;;;;;4977212;28;20073;-73
2023/06/07 11:03:21;;;;;;;13.73;8.30;;;;;;;;;;4985664;28;20436;-73
2023/06/07 11:05:58;;;;;;;17.83;8.15;;;;;;;;;;4993409;28;20029;-73
2023/06/07 11:08:27;;;;;;;13.32;7.15;;;;;;;;;;4981748;28;20027;-73
2023/06/07 11:10:58;;;;;;;12.20;8.07;;;;;;;;;;4991650;28;20120;-73
2023/06/07 11:13:43;;;;;;;13.70;7.30;;;;;;;;;;4986046;28;20030;-73
2023/06/07 11:16:24;;;;;;;13.40;7.80;;;;;;;;;;4993836;28;20033;-73
2023/06/07 11:18:52;;;;;;;13.25;8.32;;;;;;;;;;4989208;28;20085;-73
2023/06/07 11:21:18;;;;;;;12.13;7.50;;;;;;;;;;4991006;28;20492;-73
2023/06/07 11:23:43;;;;;;;16.30;7.28;;;;;;;;;;4992229;28;20022;-73
2023/06/07 11:26:10;;;;;;;11.00;8.07;;;;;;;;;;4991080;28;20102;-73
2023/06/07 11:28:39;;;;;;;13.63;8.18;;;;;;;;;;4990898;28;20096;-73
2023/06/07 11:31:08;;;;;;;15.25;8.85;;;;;;;;;;4998442;28;20528;-73
2023/06/07 11:33:34;;;;;;;14.65;7.95;;;;;;;;;;4993221;28;20127;-73
2023/06/07 11:36:00;;;;;;;14.02;9.10;;;;;;;;;;4990237;28;20051;-72
2023/06/07 11:38:28;;;;;;;15.55;8.00;;;;;;;;;;4998755;28;20014;-73
2023/06/07 11:40:54;;;;;;;14.23;8.25;;;;;;;;;;4994316;28;20026;-73
2023/06/07 11:43:20;;;;;;;15.00;8.85;;;;;;;;;;4995643;28;20381;-73
2023/06/07 11:45:45;;;;;;;17.20;8.50;;;;;;;;;;5000321;28;20069;-73
2023/06/07 11:48:10;;;;;;;13.60;8.43;;;;;;;;;;4997872;28;20266;-73
2023/06/07 11:50:36;;;;;;;14.63;8.17;;;;;;;;;;4997477;28;20088;-73
2023/06/07 11:53:02;;;;;;;13.38;8.35;;;;;;;;;;4983653;28;20758;-73
2023/06/07 11:55:27;;;;;;;14.93;9.38;;;;;;;;;;4985147;28;20049;-73
2023/06/07 11:57:53;;;;;;;14.63;10.15;;;;;;;;;;4991304;28;20014;-74
2023/06/07 12:00:23;;;;;;;18.50;9.35;;;;;;;;;;4986194;28;20018;-74
2023/06/07 12:02:48;;;;;;;;;;;;;;;;;;4993409;28;20038;-73
2023/06/07 12:05:13;;;;;;;18.60;10.67;;;;;;;;;;4989963;28;20499;-74
2023/06/07 12:07:40;;;;;;;15.85;8.43;;;;;;;;;;4984112;28;20281;-73
2023/06/07 12:10:06;;;;;;;14.93;9.60;;;;;;;;;;4981223;28;20157;-73
2023/06/07 12:12:31;;;;;;;15.45;8.77;;;;;;;;;;4984724;28;20476;-73
2023/06/07 12:15:00;;;;;;;15.33;9.30;;;;;;;;;;4977342;28;20046;-73
2023/06/07 12:17:26;;;;;;;24.77;11.60;;;;;;;;;;4982823;28;20019;-73
2023/06/07 12:19:51;;;;;;;18.13;11.38;;;;;;;;;;4981158;28;20026;-74
2023/06/07 12:22:16;;;;;;;18.98;10.38;;;;;;;;;;4984215;28;20477;-73
2023/06/07 12:24:42;;;;;;;19.73;12.02;;;;;;;;;;4969722;28;20109;-74
2023/06/07 12:27:11;;;;;;;20.42;12.40;;;;;;;;;;4985089;28;20022;-74
2023/06/07 12:29:37;;;;;;;19.30;11.60;;;;;;;;;;4994844;28;20018;-74
2023/06/07 12:32:02;;;;;;;19.17;12.07;;;;;;;;;;4989125;28;20080;-73
2023/06/07 12:34:29;;;;;;;19.50;11.30;;;;;;;;;;4995211;28;20027;-73
2023/06/07 12:36:54;;;;;;;14.85;10.07;;;;;;;;;;4987585;28;20046;-74
2023/06/07 12:39:25;;;;;;;18.55;11.45;;;;;;;;;;4995635;28;20046;-74
2023/06/07 12:41:50;;;;;;;18.67;9.65;;;;;;;;;;4982577;28;20019;-74
2023/06/07 12:44:15;;;;;;;17.37;10.50;;;;;;;;;;4990632;28;20099;-74
2023/06/07 12:46:40;;;;;;;18.77;10.25;;;;;;;;;;4991464;28;20083;-74
2023/06/07 12:49:06;;;;;;;13.47;9.20;;;;;;;;;;4992214;28;20101;-75
2023/06/07 12:51:33;;;;;;;14.23;8.57;;;;;;;;;;4991142;28;20030;-75
2023/06/07 12:53:58;;;;;;;18.95;10.30;;;;;;;;;;4989268;28;20057;-75
2023/06/07 12:56:23;;;;;;;12.52;9.25;;;;;;;;;;4993345;28;20062;-75
2023/06/07 12:58:49;;;;;;;18.55;10.57;;;;;;;;;;4991405;28;20018;-75
2023/06/07 13:01:15;;;;;;;16.63;9.63;;;;;;;;;;4990913;28;20018;-75
2023/06/07 13:03:40;;;;;;;15.65;9.48;;;;;;;;;;4994165;28;20022;-75
2023/06/07 13:06:07;;;;;;;17.90;10.90;;;;;;;;;;4971057;28;20033;-74
2023/06/07 13:08:34;;;;;;;22.10;11.50;;;;;;;;;;5001383;28;20022;-74
2023/06/07 13:11:05;;;;;;;16.55;10.80;;;;;;;;;;4990675;28;20058;-75
2023/06/07 13:13:32;;;;;;;20.65;11.52;;;;;;;;;;4981610;28;20029;-74
2023/06/07 13:15:59;;;;;;;18.67;12.07;;;;;;;;;;4968866;28;20493;-74
2023/06/07 13:18:25;;;;;;;24.35;12.75;;;;;;;;;;4992458;28;20026;-74
2023/06/07 13:20:50;;;;;;;20.63;11.48;;;;;;;;;;4984860;28;20018;-74
2023/06/07 13:23:16;;;;;;;20.55;12.60;;;;;;;;;;4980501;28;20164;-74
2023/06/07 13:25:42;;;;;;;22.95;12.73;;;;;;;;;;5001869;28;20041;-74
2023/06/07 13:28:08;;;;;;;23.67;12.63;;;;;;;;;;4995653;28;20026;-74
2023/06/07 13:30:33;;;;;;;19.63;13.32;;;;;;;;;;4985916;28;20026;-71
2023/06/07 13:32:58;;;;;;;21.20;13.47;;;;;;;;;;4994504;28;20042;-70
2023/06/07 13:35:24;;;;;;;27.63;15.40;;;;;;;;;;4995475;28;20274;-71
2023/06/07 13:37:51;;;;;;;29.27;16.60;;;;;;;;;;5004741;28;20006;-70
2023/06/07 13:40:16;;;;;;;26.50;16.27;;;;;;;;;;5000230;28;20033;-76
2023/06/07 13:42:44;;;;;;;28.17;17.38;;;;;;;;;;4984020;28;20022;-71
2023/06/07 13:45:09;;;;;;;29.10;17.90;;;;;;;;;;5003979;28;20419;-71
2023/06/07 13:47:34;;;;;;;27.27;17.33;;;;;;;;;;5004172;28;20048;-70
2023/06/07 13:50:00;;;;;;;31.50;19.53;;;;;;;;;;5003895;28;20539;-69
2023/06/07 13:52:27;;;;;;;31.63;20.10;;;;;;;;;;4993921;28;20810;-71
2023/06/07 13:54:54;;;;;;;30.48;20.55;;;;;;;;;;4990747;28;20018;-70
2023/06/07 13:57:20;;;;;;;31.42;19.95;;;;;;;;;;4985203;28;20109;-76
2023/06/07 13:59:45;;;;;;;32.35;20.73;;;;;;;;;;4997575;28;20064;-76
2023/06/07 14:02:11;;;;;;;32.10;20.93;;;;;;;;;;4987799;28;20077;-74
2023/06/07 14:04:36;;;;;;;34.13;20.15;;;;;;;;;;4994819;28;20270;-74
2023/06/07 14:07:02;;;;;;;29.67;20.17;;;;;;;;;;4988322;28;20033;-69
2023/06/07 14:09:27;;;;;;;36.45;22.80;;;;;;;;;;4984856;28;20094;-77
2023/06/07 14:11:52;;;;;;;43.60;23.05;;;;;;;;;;4988871;28;20427;-77
2023/06/07 14:14:19;;;;;;;33.17;20.65;;;;;;;;;;4988286;28;20098;-75
2023/06/07 14:16:44;;;;;;;32.05;18.92;;;;;;;;;;4993390;28;20026;-74
2023/06/07 14:19:09;;;;;;;25.63;16.88;;;;;;;;;;4989283;28;20488;-74
2023/06/07 14:21:34;;;;;;;24.00;15.67;;;;;;;;;;4986075;28;20033;-74
2023/06/07 14:24:00;;;;;;;20.73;15.60;;;;;;;;;;4984989;28;20057;-74
2023/06/07 14:26:26;;;;;;;27.70;14.73;;;;;;;;;;4983458;28;20019;-74